createdAt,value
2019-01-31T00:00:03.985Z,35.20
2019-01-31T00:01:03.920Z,34.80
2019-01-31T00:02:03.911Z,34.70
2019-01-31T00:03:03.937Z,34.70
2019-01-31T00:04:03.912Z,34.90
2019-01-31T00:05:03.872Z,34.50
2019-01-31T00:06:03.868Z,34.20
2019-01-31T00:07:03.862Z,34.10
2019-01-31T00:08:03.840Z,34.60
2019-01-31T00:09:03.861Z,35.30
2019-01-31T00:10:03.828Z,35.80
2019-01-31T00:11:03.806Z,34.00
2019-01-31T00:12:03.793Z,34.50
2019-01-31T00:13:03.781Z,34.30
2019-01-31T00:14:03.789Z,34.40
2019-01-31T00:15:03.794Z,34.00
2019-01-31T00:16:03.756Z,34.60
2019-01-31T00:17:03.737Z,35.00
2019-01-31T00:18:03.725Z,34.60
2019-01-31T00:19:03.721Z,34.70
2019-01-31T00:20:03.722Z,34.10
2019-01-31T00:21:03.741Z,35.50
2019-01-31T00:22:04.054Z,33.90
2019-01-31T00:23:03.669Z,34.00
2019-01-31T00:24:03.660Z,34.70
2019-01-31T00:25:04.319Z,34.90
2019-01-31T00:26:03.641Z,34.80
2019-01-31T00:27:03.640Z,33.40
2019-01-31T00:28:03.623Z,35.80
2019-01-31T00:29:03.603Z,35.50
2019-01-31T00:30:03.626Z,34.90
2019-01-31T00:31:03.608Z,35.30
2019-01-31T00:32:03.574Z,35.10
2019-01-31T00:33:03.566Z,36.00
2019-01-31T00:34:03.548Z,35.40
2019-01-31T00:35:03.562Z,34.50
2019-01-31T00:36:03.529Z,36.20
2019-01-31T00:37:03.525Z,34.20
2019-01-31T00:38:03.529Z,34.10
2019-01-31T00:39:03.503Z,33.60
2019-01-31T00:40:03.499Z,34.70
2019-01-31T00:41:03.474Z,34.90
2019-01-31T00:42:03.469Z,33.00
2019-01-31T00:43:03.448Z,35.10
2019-01-31T00:44:03.434Z,35.00
2019-01-31T00:45:03.452Z,34.60
2019-01-31T00:46:03.412Z,34.90
2019-01-31T00:47:03.415Z,34.40
2019-01-31T00:48:03.399Z,34.30
2019-01-31T00:49:03.388Z,34.70
2019-01-31T00:50:03.369Z,35.30
2019-01-31T00:51:03.402Z,34.80
2019-01-31T00:52:03.384Z,34.40
2019-01-31T00:53:03.345Z,34.10
2019-01-31T00:54:03.383Z,34.70
2019-01-31T00:55:03.323Z,34.30
2019-01-31T00:56:03.341Z,34.60
2019-01-31T00:57:03.287Z,36.40
2019-01-31T00:58:03.284Z,34.00
2019-01-31T00:59:03.263Z,33.70
2019-01-31T01:00:03.254Z,35.30
2019-01-31T01:01:03.257Z,35.80
2019-01-31T01:02:03.243Z,34.60
2019-01-31T01:03:03.247Z,34.70
2019-01-31T01:04:03.211Z,34.10
2019-01-31T01:05:03.203Z,35.10
2019-01-31T01:06:03.205Z,34.90
2019-01-31T01:07:03.176Z,34.80
2019-01-31T01:08:03.159Z,35.00
2019-01-31T01:09:07.890Z,34.50
2019-01-31T01:10:04.202Z,34.50
2019-01-31T01:11:03.161Z,34.70
2019-01-31T01:12:04.594Z,34.70
2019-01-31T01:13:03.109Z,34.60
2019-01-31T01:14:03.106Z,33.90
2019-01-31T01:15:03.101Z,33.60
2019-01-31T01:16:03.104Z,34.60
2019-01-31T01:17:03.103Z,34.40
2019-01-31T01:18:03.052Z,35.40
2019-01-31T01:19:03.038Z,34.50
2019-01-31T01:20:03.028Z,34.10
2019-01-31T01:21:03.066Z,35.00
2019-01-31T01:22:03.025Z,35.40
2019-01-31T01:23:03.000Z,34.70
2019-01-31T01:24:03.013Z,34.70
2019-01-31T01:25:02.972Z,34.40
2019-01-31T01:26:02.982Z,35.70
2019-01-31T01:27:02.958Z,34.60
2019-01-31T01:28:02.938Z,34.60
2019-01-31T01:29:03.019Z,33.80
2019-01-31T01:30:02.947Z,34.80
2019-01-31T01:31:02.936Z,35.20
2019-01-31T01:32:02.887Z,34.30
2019-01-31T01:33:02.884Z,34.50
2019-01-31T01:34:02.870Z,34.00
2019-01-31T01:35:02.894Z,35.00
2019-01-31T01:36:02.859Z,35.00
2019-01-31T01:37:02.864Z,33.60
2019-01-31T01:38:02.834Z,34.20
2019-01-31T01:39:02.813Z,34.20
2019-01-31T01:40:02.804Z,33.70
2019-01-31T01:41:02.792Z,33.20
2019-01-31T01:42:02.811Z,34.30
2019-01-31T01:43:02.767Z,33.20
2019-01-31T01:44:02.763Z,34.40
2019-01-31T01:45:02.747Z,33.30
2019-01-31T01:46:02.737Z,34.30
2019-01-31T01:47:02.738Z,34.50
2019-01-31T01:48:02.724Z,33.70
2019-01-31T01:49:02.702Z,35.30
2019-01-31T01:50:02.694Z,33.40
2019-01-31T01:51:02.686Z,33.90
2019-01-31T01:52:02.687Z,33.10
2019-01-31T01:53:02.662Z,34.40
2019-01-31T01:54:02.674Z,32.10
2019-01-31T01:55:02.635Z,32.20
2019-01-31T01:56:02.622Z,34.60
2019-01-31T01:57:02.657Z,34.30
2019-01-31T01:58:02.597Z,34.30
2019-01-31T01:59:02.617Z,32.90
2019-01-31T02:00:02.586Z,33.40
2019-01-31T02:01:02.574Z,32.90
2019-01-31T02:02:02.588Z,33.40
2019-01-31T02:03:02.581Z,33.10
2019-01-31T02:04:02.537Z,33.30
2019-01-31T02:05:02.524Z,34.20
2019-01-31T02:06:02.513Z,34.10
2019-01-31T02:07:02.521Z,33.10
2019-01-31T02:08:02.506Z,34.10
2019-01-31T02:09:02.478Z,35.30
2019-01-31T02:10:02.466Z,34.40
2019-01-31T02:11:02.457Z,34.20
2019-01-31T02:12:02.472Z,33.00
2019-01-31T02:13:02.433Z,33.70
2019-01-31T02:14:02.427Z,35.00
2019-01-31T02:15:02.411Z,33.20
2019-01-31T02:16:02.423Z,34.00
2019-01-31T02:17:02.418Z,33.50
2019-01-31T02:18:02.374Z,33.10
2019-01-31T02:19:02.365Z,32.80
2019-01-31T02:20:02.365Z,33.00
2019-01-31T02:21:02.358Z,32.00
2019-01-31T02:22:02.329Z,32.30
2019-01-31T02:23:02.341Z,33.50
2019-01-31T02:24:02.313Z,32.30
2019-01-31T02:25:02.299Z,32.30
2019-01-31T02:26:02.365Z,33.60
2019-01-31T02:27:02.291Z,33.10
2019-01-31T02:28:02.290Z,32.90
2019-01-31T02:29:02.260Z,32.40
2019-01-31T02:30:02.246Z,34.20
2019-01-31T02:31:02.233Z,33.50
2019-01-31T02:32:02.234Z,33.50
2019-01-31T02:33:02.230Z,33.20
2019-01-31T02:34:02.205Z,32.80
2019-01-31T02:35:02.190Z,33.00
2019-01-31T02:36:04.994Z,32.50
2019-01-31T02:37:02.200Z,33.40
2019-01-31T02:38:02.172Z,33.30
2019-01-31T02:39:02.147Z,34.30
2019-01-31T02:40:02.134Z,31.70
2019-01-31T02:41:02.136Z,32.80
2019-01-31T02:42:02.108Z,31.80
2019-01-31T02:43:02.121Z,32.20
2019-01-31T02:44:02.195Z,32.50
2019-01-31T02:45:02.078Z,32.40
2019-01-31T02:46:02.099Z,32.60
2019-01-31T02:47:02.054Z,33.00
2019-01-31T02:48:02.080Z,32.50
2019-01-31T02:49:02.034Z,32.70
2019-01-31T02:50:02.021Z,32.60
2019-01-31T02:51:02.008Z,32.00
2019-01-31T02:52:01.992Z,32.80
2019-01-31T02:53:02.031Z,31.50
2019-01-31T02:54:01.980Z,32.50
2019-01-31T02:55:01.973Z,32.60
2019-01-31T02:56:01.966Z,32.60
2019-01-31T02:57:01.942Z,31.50
2019-01-31T02:58:01.933Z,31.00
2019-01-31T02:59:01.933Z,30.90
2019-01-31T03:00:01.917Z,32.40
2019-01-31T03:01:01.910Z,31.60
2019-01-31T03:02:01.888Z,31.80
2019-01-31T03:03:01.877Z,31.30
2019-01-31T03:04:01.885Z,31.20
2019-01-31T03:05:01.853Z,31.60
2019-01-31T03:06:01.935Z,31.40
2019-01-31T03:07:01.828Z,31.40
2019-01-31T03:08:01.824Z,31.60
2019-01-31T03:09:01.858Z,31.40
2019-01-31T03:10:01.797Z,30.20
2019-01-31T03:11:01.795Z,31.10
2019-01-31T03:12:01.773Z,32.50
2019-01-31T03:13:01.763Z,30.60
2019-01-31T03:14:10.018Z,31.10
2019-01-31T03:15:02.762Z,31.20
2019-01-31T03:16:01.730Z,31.90
2019-01-31T03:17:01.715Z,32.00
2019-01-31T03:18:01.727Z,30.90
2019-01-31T03:19:01.716Z,31.80
2019-01-31T03:20:01.691Z,31.10
2019-01-31T03:21:01.675Z,30.70
2019-01-31T03:22:01.679Z,31.10
2019-01-31T03:23:01.650Z,31.70
2019-01-31T03:24:01.664Z,30.70
2019-01-31T03:25:01.627Z,31.90
2019-01-31T03:26:01.621Z,30.20
2019-01-31T03:27:01.604Z,31.80
2019-01-31T03:28:01.619Z,31.60
2019-01-31T03:29:01.609Z,32.10
2019-01-31T03:30:01.577Z,31.90
2019-01-31T03:31:01.562Z,32.00
2019-01-31T03:32:01.543Z,31.60
2019-01-31T03:33:01.541Z,31.40
2019-01-31T03:34:01.570Z,30.50
2019-01-31T03:35:01.518Z,31.80
2019-01-31T03:36:01.507Z,31.10
2019-01-31T03:37:01.509Z,30.90
2019-01-31T03:38:01.481Z,31.90
2019-01-31T03:39:01.495Z,30.90
2019-01-31T03:40:06.908Z,30.60
2019-01-31T03:41:02.448Z,31.90
2019-01-31T03:42:01.437Z,31.30
2019-01-31T03:43:01.439Z,30.20
2019-01-31T03:44:01.427Z,31.40
2019-01-31T03:45:01.437Z,30.60
2019-01-31T03:46:01.438Z,31.60
2019-01-31T03:47:01.385Z,29.80
2019-01-31T03:48:01.372Z,30.80
2019-01-31T03:49:01.359Z,30.20
2019-01-31T03:50:01.388Z,30.10
2019-01-31T03:51:01.338Z,29.90
2019-01-31T03:52:01.335Z,28.80
2019-01-31T03:53:01.318Z,29.30
2019-01-31T03:54:01.303Z,30.70
2019-01-31T03:55:01.314Z,30.40
2019-01-31T03:56:01.282Z,30.50
2019-01-31T03:57:01.272Z,29.50
2019-01-31T03:58:01.272Z,29.80
2019-01-31T03:59:01.256Z,29.20
2019-01-31T04:00:01.272Z,30.70
2019-01-31T04:01:01.229Z,30.50
2019-01-31T04:02:01.215Z,30.60
2019-01-31T04:03:01.210Z,30.80
2019-01-31T04:04:01.196Z,31.40
2019-01-31T04:05:01.212Z,29.20
2019-01-31T04:06:01.169Z,30.20
2019-01-31T04:07:01.172Z,29.70
2019-01-31T04:08:01.249Z,30.30
2019-01-31T04:09:01.140Z,29.70
2019-01-31T04:10:01.146Z,29.90
2019-01-31T04:11:01.129Z,30.00
2019-01-31T04:12:01.179Z,29.90
2019-01-31T04:13:01.104Z,29.40
2019-01-31T04:14:01.079Z,29.60
2019-01-31T04:15:01.116Z,31.60
2019-01-31T04:16:01.056Z,29.50
2019-01-31T04:17:01.050Z,29.60
2019-01-31T04:18:01.036Z,31.70
2019-01-31T04:19:01.045Z,31.50
2019-01-31T04:20:01.011Z,32.30
2019-01-31T04:21:01.023Z,31.90
2019-01-31T04:22:00.987Z,31.40
2019-01-31T04:23:00.982Z,31.10
2019-01-31T04:24:00.981Z,30.80
2019-01-31T04:25:00.956Z,30.20
2019-01-31T04:26:00.971Z,31.60
2019-01-31T04:27:00.953Z,30.90
2019-01-31T04:28:00.925Z,29.80
2019-01-31T04:29:00.915Z,30.90
2019-01-31T04:30:00.899Z,29.00
2019-01-31T04:31:00.934Z,29.10
2019-01-31T04:32:00.879Z,28.50
2019-01-31T04:33:00.876Z,28.50
2019-01-31T04:34:00.885Z,29.50
2019-01-31T04:35:00.844Z,27.90
2019-01-31T04:36:00.851Z,28.40
2019-01-31T04:37:00.821Z,29.80
2019-01-31T04:38:00.809Z,29.00
2019-01-31T04:39:00.845Z,28.60
2019-01-31T04:40:00.790Z,28.60
2019-01-31T04:41:00.839Z,29.10
2019-01-31T04:42:00.766Z,29.10
2019-01-31T04:43:00.755Z,29.10
2019-01-31T04:44:00.749Z,28.50
2019-01-31T04:45:00.733Z,28.70
2019-01-31T04:46:00.744Z,28.40
2019-01-31T04:47:00.710Z,27.40
2019-01-31T04:48:00.704Z,28.50
2019-01-31T04:49:00.684Z,28.70
2019-01-31T04:50:00.683Z,28.10
2019-01-31T04:51:00.702Z,29.20
2019-01-31T04:52:00.652Z,28.60
2019-01-31T04:53:00.652Z,29.30
2019-01-31T04:54:00.636Z,28.00
2019-01-31T04:55:00.616Z,29.50
2019-01-31T04:56:00.633Z,28.40
2019-01-31T04:57:00.618Z,29.70
2019-01-31T04:58:00.587Z,29.30
2019-01-31T04:59:00.598Z,28.90
2019-01-31T05:00:00.689Z,28.40
2019-01-31T05:01:00.558Z,29.00
2019-01-31T05:02:00.572Z,28.90
2019-01-31T05:03:00.533Z,28.60
2019-01-31T05:04:00.519Z,29.20
2019-01-31T05:05:00.555Z,28.00
2019-01-31T05:06:00.502Z,28.40
2019-01-31T05:07:00.531Z,27.20
2019-01-31T05:08:00.473Z,26.80
2019-01-31T05:09:00.468Z,25.90
2019-01-31T05:10:00.518Z,26.60
2019-01-31T05:11:00.446Z,27.40
2019-01-31T05:12:00.451Z,28.40
2019-01-31T05:13:00.417Z,27.60
2019-01-31T05:14:00.444Z,27.40
2019-01-31T05:15:00.409Z,28.30
2019-01-31T05:16:03.470Z,26.30
2019-01-31T05:17:00.388Z,25.10
2019-01-31T05:18:00.367Z,27.10
2019-01-31T05:19:00.371Z,27.10
2019-01-31T05:20:00.344Z,25.80
2019-01-31T05:21:00.340Z,25.80
2019-01-31T05:22:00.354Z,25.80
2019-01-31T05:23:00.307Z,26.50
2019-01-31T05:24:00.303Z,25.90
2019-01-31T05:25:00.328Z,26.50
2019-01-31T05:26:00.294Z,26.40
2019-01-31T05:27:00.283Z,26.00
2019-01-31T05:28:00.259Z,26.60
2019-01-31T05:29:00.237Z,26.40
2019-01-31T05:30:00.351Z,27.60
2019-01-31T05:31:00.216Z,26.20
2019-01-31T05:32:00.233Z,26.20
2019-01-31T05:33:00.212Z,27.00
2019-01-31T05:34:00.184Z,27.30
2019-01-31T05:35:00.348Z,26.60
2019-01-31T05:36:00.177Z,25.10
2019-01-31T05:37:00.148Z,26.40
2019-01-31T05:38:00.164Z,25.50
2019-01-31T05:39:00.138Z,25.10
2019-01-31T05:40:00.191Z,26.10
2019-01-31T05:41:00.110Z,25.90
2019-01-31T05:42:00.090Z,25.20
2019-01-31T05:43:00.097Z,25.50
2019-01-31T05:44:00.081Z,25.50
2019-01-31T05:45:00.085Z,26.30
2019-01-31T05:46:00.061Z,24.90
2019-01-31T05:47:00.053Z,25.60
2019-01-31T05:48:00.050Z,24.80
2019-01-31T05:49:00.019Z,25.50
2019-01-31T05:50:00.026Z,25.20
2019-01-31T05:50:59.996Z,24.90
2019-01-31T05:51:59.989Z,24.70
2019-01-31T05:52:59.995Z,25.50
2019-01-31T05:53:59.963Z,25.10
2019-01-31T05:54:59.981Z,26.10
2019-01-31T05:55:59.945Z,24.70
2019-01-31T05:56:59.930Z,25.10
2019-01-31T05:57:59.952Z,25.60
2019-01-31T05:58:59.898Z,24.80
2019-01-31T05:59:59.906Z,25.20
2019-01-31T06:00:59.876Z,25.20
2019-01-31T06:01:59.879Z,24.80
2019-01-31T06:02:59.873Z,24.40
2019-01-31T06:03:59.887Z,25.00
2019-01-31T06:04:59.848Z,24.90
2019-01-31T06:05:59.829Z,24.20
2019-01-31T06:07:10.652Z,24.80
2019-01-31T06:08:00.844Z,25.00
2019-01-31T06:08:59.786Z,25.80
2019-01-31T06:10:00.383Z,24.40
2019-01-31T06:11:07.092Z,24.60
2019-01-31T06:12:21.842Z,24.30
2019-01-31T06:13:06.299Z,25.30
2019-01-31T06:14:00.817Z,24.90
2019-01-31T06:15:02.318Z,25.40
2019-01-31T06:16:02.290Z,24.70
2019-01-31T06:17:01.015Z,24.90
2019-01-31T06:18:01.035Z,24.30
2019-01-31T06:19:00.540Z,24.80
2019-01-31T06:20:00.079Z,25.60
2019-01-31T06:21:02.281Z,24.50
2019-01-31T06:21:59.666Z,24.50
2019-01-31T06:23:01.321Z,23.20
2019-01-31T06:24:01.122Z,24.30
2019-01-31T06:25:00.940Z,25.50
2019-01-31T06:26:00.826Z,24.70
2019-01-31T06:27:02.300Z,23.90
2019-01-31T06:28:01.332Z,25.30
2019-01-31T06:29:02.287Z,24.00
2019-01-31T06:29:59.630Z,24.40
2019-01-31T06:31:01.090Z,25.60
2019-01-31T06:31:59.561Z,24.60
2019-01-31T06:32:59.528Z,24.80
2019-01-31T06:33:59.531Z,24.60
2019-01-31T06:34:59.505Z,24.20
2019-01-31T06:35:59.485Z,24.80
2019-01-31T06:36:59.494Z,24.00
2019-01-31T06:37:59.477Z,24.70
2019-01-31T06:38:59.478Z,24.90
2019-01-31T06:39:59.459Z,24.60
2019-01-31T06:40:59.461Z,24.50
2019-01-31T06:41:59.453Z,24.80
2019-01-31T06:42:59.418Z,24.20
2019-01-31T06:43:59.419Z,24.50
2019-01-31T06:44:59.393Z,25.20
2019-01-31T06:45:59.384Z,24.60
2019-01-31T06:46:59.367Z,24.30
2019-01-31T06:47:59.354Z,24.50
2019-01-31T06:48:59.386Z,24.30
2019-01-31T06:49:59.335Z,24.70
2019-01-31T06:50:59.327Z,24.40
2019-01-31T06:51:59.328Z,23.50
2019-01-31T06:52:59.307Z,24.30
2019-01-31T06:53:59.322Z,23.60
2019-01-31T06:54:59.278Z,24.90
2019-01-31T06:55:59.297Z,23.90
2019-01-31T06:56:59.262Z,25.30
2019-01-31T06:57:59.254Z,24.60
2019-01-31T06:58:59.245Z,24.00
2019-01-31T06:59:59.254Z,25.60
2019-01-31T07:00:59.213Z,24.80
2019-01-31T07:01:59.201Z,24.70
2019-01-31T07:02:59.193Z,24.60
2019-01-31T07:03:59.200Z,25.20
2019-01-31T07:04:59.172Z,24.20
2019-01-31T07:05:59.153Z,24.00
2019-01-31T07:06:59.148Z,24.10
2019-01-31T07:07:59.136Z,24.10
2019-01-31T07:08:59.158Z,24.20
2019-01-31T07:09:59.115Z,24.30
2019-01-31T07:10:59.122Z,23.50
2019-01-31T07:11:59.095Z,23.90
2019-01-31T07:12:59.081Z,23.80
2019-01-31T07:13:59.078Z,24.10
2019-01-31T07:14:59.068Z,24.00
2019-01-31T07:15:59.046Z,23.30
2019-01-31T07:16:59.032Z,23.80
2019-01-31T07:17:59.027Z,23.10
2019-01-31T07:18:59.028Z,23.50
2019-01-31T07:19:59.039Z,22.90
2019-01-31T07:20:59.002Z,23.70
2019-01-31T07:21:58.974Z,23.60
2019-01-31T07:22:58.964Z,24.70
2019-01-31T07:23:58.968Z,24.30
2019-01-31T07:24:58.961Z,24.70
2019-01-31T07:25:58.953Z,23.60
2019-01-31T07:26:58.930Z,23.90
2019-01-31T07:27:58.906Z,23.70
2019-01-31T07:28:58.896Z,23.70
2019-01-31T07:29:58.924Z,23.40
2019-01-31T07:30:58.878Z,23.90
2019-01-31T07:31:58.904Z,25.00
2019-01-31T07:32:58.853Z,24.70
2019-01-31T07:33:58.847Z,24.10
2019-01-31T07:34:58.851Z,23.90
2019-01-31T07:35:58.827Z,24.30
2019-01-31T07:36:58.812Z,23.80
2019-01-31T07:37:58.801Z,25.60
2019-01-31T07:38:58.798Z,24.90
2019-01-31T07:39:58.801Z,24.80
2019-01-31T07:40:58.769Z,24.30
2019-01-31T07:41:58.755Z,24.70
2019-01-31T07:42:58.760Z,24.10
2019-01-31T07:43:58.733Z,25.40
2019-01-31T07:44:58.768Z,24.30
2019-01-31T07:45:58.713Z,25.30
2019-01-31T07:46:58.696Z,24.80
2019-01-31T07:47:58.729Z,23.90
2019-01-31T07:48:58.682Z,25.30
2019-01-31T07:49:58.673Z,26.00
2019-01-31T07:50:58.693Z,24.70
2019-01-31T07:51:58.744Z,30.80
2019-01-31T07:52:58.654Z,26.10
2019-01-31T07:53:58.628Z,27.40
2019-01-31T07:55:01.792Z,27.10
2019-01-31T07:55:58.614Z,25.70
2019-01-31T07:56:58.594Z,25.30
2019-01-31T07:57:58.587Z,26.00
2019-01-31T07:58:58.566Z,25.50
2019-01-31T07:59:58.553Z,26.70
2019-01-31T08:00:58.570Z,25.10
2019-01-31T08:01:58.552Z,25.40
2019-01-31T08:02:58.537Z,27.10
2019-01-31T08:04:02.694Z,25.50
2019-01-31T08:04:58.504Z,26.60
2019-01-31T08:05:58.518Z,28.30
2019-01-31T08:06:58.479Z,27.50
2019-01-31T08:07:58.467Z,27.80
2019-01-31T08:08:58.453Z,25.80
2019-01-31T08:09:58.442Z,26.00
2019-01-31T08:10:58.455Z,25.80
2019-01-31T08:11:58.453Z,25.90
2019-01-31T08:12:58.407Z,24.60
2019-01-31T08:13:58.393Z,25.30
2019-01-31T08:14:58.387Z,26.30
2019-01-31T08:15:58.450Z,25.70
2019-01-31T08:16:58.369Z,25.10
2019-01-31T08:17:58.357Z,26.00
2019-01-31T08:18:58.356Z,26.00
2019-01-31T08:19:58.337Z,25.40
2019-01-31T08:20:58.358Z,25.60
2019-01-31T08:21:58.312Z,25.70
2019-01-31T08:23:00.195Z,25.20
2019-01-31T08:23:58.297Z,25.00
2019-01-31T08:24:58.277Z,24.70
2019-01-31T08:25:58.301Z,25.10
2019-01-31T08:26:58.357Z,25.20
2019-01-31T08:27:58.240Z,24.50
2019-01-31T08:28:58.231Z,25.40
2019-01-31T08:29:58.245Z,25.80
2019-01-31T08:30:58.215Z,25.80
2019-01-31T08:31:58.214Z,25.40
2019-01-31T08:32:58.183Z,25.40
2019-01-31T08:33:58.219Z,24.80
2019-01-31T08:34:58.165Z,25.60
2019-01-31T08:35:58.150Z,24.80
2019-01-31T08:36:58.268Z,25.20
2019-01-31T08:37:58.128Z,25.50
2019-01-31T08:38:58.125Z,25.30
2019-01-31T08:39:58.111Z,25.40
2019-01-31T08:40:58.097Z,25.50
2019-01-31T08:42:03.877Z,26.10
2019-01-31T08:42:59.077Z,25.10
2019-01-31T08:43:58.058Z,25.10
2019-01-31T08:44:58.057Z,25.70
2019-01-31T08:45:58.037Z,25.50
2019-01-31T08:46:58.053Z,25.60
2019-01-31T08:47:58.021Z,24.90
2019-01-31T08:48:58.005Z,25.30
2019-01-31T08:49:58.000Z,26.60
2019-01-31T08:50:57.981Z,27.30
2019-01-31T08:51:57.991Z,29.60
2019-01-31T08:52:57.970Z,29.90
2019-01-31T08:53:57.954Z,27.90
2019-01-31T08:54:57.934Z,27.80
2019-01-31T08:55:57.971Z,26.70
2019-01-31T08:56:57.938Z,26.80
2019-01-31T08:57:57.904Z,26.80
2019-01-31T08:58:57.892Z,26.40
2019-01-31T08:59:57.882Z,25.40
2019-01-31T09:00:57.957Z,25.90
2019-01-31T09:01:57.909Z,25.70
2019-01-31T09:02:57.863Z,25.70
2019-01-31T09:03:57.845Z,25.60
2019-01-31T09:04:57.828Z,25.90
2019-01-31T09:05:57.815Z,25.60
2019-01-31T09:06:57.818Z,26.50
2019-01-31T09:07:57.793Z,25.80
2019-01-31T09:08:57.783Z,26.00
2019-01-31T09:09:57.787Z,24.80
2019-01-31T09:10:57.765Z,24.90
2019-01-31T09:11:57.776Z,24.10
2019-01-31T09:12:57.738Z,24.60
2019-01-31T09:13:57.746Z,24.90
2019-01-31T09:14:57.716Z,25.10
2019-01-31T09:15:57.713Z,25.40
2019-01-31T09:16:57.698Z,25.90
2019-01-31T09:17:57.710Z,25.20
2019-01-31T09:18:57.671Z,25.00
2019-01-31T09:19:57.657Z,24.50
2019-01-31T09:20:57.643Z,24.80
2019-01-31T09:21:57.650Z,24.90
2019-01-31T09:22:57.644Z,25.20
2019-01-31T09:23:57.620Z,25.00
2019-01-31T09:24:57.616Z,25.40
2019-01-31T09:25:57.592Z,25.10
2019-01-31T09:26:57.581Z,24.60
2019-01-31T09:27:57.593Z,25.10
2019-01-31T09:28:57.574Z,25.50
2019-01-31T09:29:57.550Z,24.50
2019-01-31T09:30:57.557Z,25.10
2019-01-31T09:31:57.536Z,24.30
2019-01-31T09:32:57.540Z,24.90
2019-01-31T09:33:57.507Z,25.60
2019-01-31T09:34:57.502Z,25.70
2019-01-31T09:35:57.484Z,24.30
2019-01-31T09:36:57.469Z,23.90
2019-01-31T09:37:57.488Z,24.00
2019-01-31T09:38:57.453Z,25.10
2019-01-31T09:39:57.524Z,25.20
2019-01-31T09:40:57.427Z,24.70
2019-01-31T09:41:57.423Z,24.90
2019-01-31T09:42:57.470Z,25.00
2019-01-31T09:43:57.395Z,24.40
2019-01-31T09:44:57.411Z,23.70
2019-01-31T09:45:57.380Z,24.30
2019-01-31T09:46:57.359Z,24.70
2019-01-31T09:47:57.373Z,24.00
2019-01-31T09:48:57.341Z,24.00
2019-01-31T09:49:57.338Z,23.40
2019-01-31T09:50:57.317Z,24.80
2019-01-31T09:51:57.307Z,24.00
2019-01-31T09:52:57.348Z,24.30
2019-01-31T09:53:57.286Z,24.50
2019-01-31T09:54:57.270Z,24.00
2019-01-31T09:55:57.291Z,24.30
2019-01-31T09:56:57.251Z,23.70
2019-01-31T09:57:57.236Z,22.90
2019-01-31T09:58:57.246Z,23.90
2019-01-31T09:59:57.216Z,24.80
2019-01-31T10:00:57.249Z,24.20
2019-01-31T10:01:57.198Z,24.50
2019-01-31T10:02:57.177Z,25.40
2019-01-31T10:03:57.198Z,23.60
2019-01-31T10:04:57.158Z,23.40
2019-01-31T10:05:57.146Z,22.60
2019-01-31T10:06:57.133Z,22.50
2019-01-31T10:07:57.145Z,23.40
2019-01-31T10:08:57.131Z,23.10
2019-01-31T10:09:57.140Z,22.20
2019-01-31T10:10:57.169Z,22.90
2019-01-31T10:11:57.119Z,22.70
2019-01-31T10:12:57.102Z,22.30
2019-01-31T10:13:57.135Z,21.80
2019-01-31T10:14:57.059Z,23.50
2019-01-31T10:15:57.079Z,22.90
2019-01-31T10:16:57.108Z,22.60
2019-01-31T10:17:57.046Z,22.70
2019-01-31T10:18:57.025Z,23.50
2019-01-31T10:19:57.088Z,21.10
2019-01-31T10:20:57.097Z,21.10
2019-01-31T10:21:57.181Z,22.30
2019-01-31T10:22:56.951Z,22.10
2019-01-31T10:23:57.037Z,21.80
2019-01-31T10:24:56.992Z,21.00
2019-01-31T10:25:56.927Z,23.50
2019-01-31T10:26:56.905Z,22.80
2019-01-31T10:27:56.900Z,22.60
2019-01-31T10:28:56.903Z,23.40
2019-01-31T10:29:56.877Z,24.90
2019-01-31T10:30:56.893Z,23.30
2019-01-31T10:31:56.850Z,27.90
2019-01-31T10:32:56.847Z,25.20
2019-01-31T10:33:56.867Z,24.50
2019-01-31T10:34:56.815Z,25.30
2019-01-31T10:35:56.808Z,27.00
2019-01-31T10:36:56.806Z,36.30
2019-01-31T10:37:56.795Z,34.30
2019-01-31T10:38:56.773Z,33.70
2019-01-31T10:39:56.781Z,26.40
2019-01-31T10:40:56.757Z,29.60
2019-01-31T10:41:56.739Z,32.70
2019-01-31T10:42:56.725Z,34.80
2019-01-31T10:43:56.712Z,34.90
2019-01-31T10:44:56.738Z,38.70
2019-01-31T10:45:56.691Z,33.90
2019-01-31T10:46:56.697Z,31.10
2019-01-31T10:47:56.677Z,26.10
2019-01-31T10:48:56.692Z,25.10
2019-01-31T10:49:56.665Z,23.00
2019-01-31T10:50:58.532Z,24.40
2019-01-31T10:51:56.645Z,24.70
2019-01-31T10:52:56.617Z,23.90
2019-01-31T10:53:56.608Z,23.10
2019-01-31T10:54:56.631Z,24.10
2019-01-31T10:55:56.575Z,21.00
2019-01-31T10:56:56.579Z,21.10
2019-01-31T10:57:56.599Z,20.80
2019-01-31T10:58:56.549Z,21.30
2019-01-31T10:59:56.558Z,21.60
2019-01-31T11:00:56.539Z,20.80
2019-01-31T11:01:56.516Z,19.40
2019-01-31T11:02:56.507Z,20.50
2019-01-31T11:03:56.488Z,20.00
2019-01-31T11:04:56.491Z,20.60
2019-01-31T11:05:56.464Z,20.60
2019-01-31T11:06:56.462Z,20.30
2019-01-31T11:07:59.445Z,20.50
2019-01-31T11:08:56.429Z,20.20
2019-01-31T11:09:56.446Z,21.00
2019-01-31T11:10:56.409Z,21.90
2019-01-31T11:11:56.405Z,20.50
2019-01-31T11:13:00.911Z,19.90
2019-01-31T11:13:56.378Z,20.60
2019-01-31T11:14:56.381Z,20.40
2019-01-31T11:15:56.348Z,21.10
2019-01-31T11:16:56.342Z,21.00
2019-01-31T11:17:56.346Z,21.20
2019-01-31T11:18:56.320Z,20.30
2019-01-31T11:19:56.328Z,20.10
2019-01-31T11:20:56.295Z,20.80
2019-01-31T11:21:56.281Z,20.20
2019-01-31T11:22:56.276Z,21.20
2019-01-31T11:23:56.275Z,21.10
2019-01-31T11:24:56.252Z,20.30
2019-01-31T11:25:56.266Z,20.60
2019-01-31T11:26:57.155Z,20.50
2019-01-31T11:27:56.216Z,20.10
2019-01-31T11:28:56.202Z,19.50
2019-01-31T11:29:56.213Z,19.90
2019-01-31T11:30:56.202Z,20.90
2019-01-31T11:31:56.168Z,20.30
2019-01-31T11:32:56.152Z,20.30
2019-01-31T11:33:56.142Z,20.30
2019-01-31T11:34:56.150Z,20.30
2019-01-31T11:35:56.141Z,20.00
2019-01-31T11:36:56.111Z,20.60
2019-01-31T11:37:56.103Z,19.80
2019-01-31T11:38:56.086Z,18.70
2019-01-31T11:39:56.077Z,20.00
2019-01-31T11:40:56.087Z,19.60
2019-01-31T11:41:56.052Z,19.70
2019-01-31T11:42:56.040Z,19.60
2019-01-31T11:43:56.030Z,19.40
2019-01-31T11:44:56.018Z,19.60
2019-01-31T11:45:56.030Z,19.80
2019-01-31T11:46:56.002Z,20.50
2019-01-31T11:47:56.024Z,19.20
2019-01-31T11:48:55.978Z,19.30
2019-01-31T11:49:55.966Z,17.70
2019-01-31T11:50:55.973Z,18.00
2019-01-31T11:51:55.946Z,18.70
2019-01-31T11:52:56.027Z,18.80
2019-01-31T11:53:55.946Z,18.50
2019-01-31T11:54:55.910Z,17.60
2019-01-31T11:55:55.977Z,18.60
2019-01-31T11:57:05.259Z,18.40
2019-01-31T11:57:56.869Z,18.10
2019-01-31T11:58:55.870Z,17.70
2019-01-31T11:59:55.848Z,17.30
2019-01-31T12:00:55.872Z,17.30
2019-01-31T12:01:55.832Z,16.80
2019-01-31T12:02:55.813Z,17.90
2019-01-31T12:03:55.814Z,17.50
2019-01-31T12:04:55.805Z,17.00
2019-01-31T12:05:55.786Z,18.30
2019-01-31T12:06:55.785Z,17.20
2019-01-31T12:07:55.767Z,18.20
2019-01-31T12:08:55.759Z,16.10
2019-01-31T12:09:55.781Z,16.60
2019-01-31T12:10:55.753Z,17.20
2019-01-31T12:11:55.734Z,16.10
2019-01-31T12:12:55.704Z,17.40
2019-01-31T12:13:55.702Z,16.90
2019-01-31T12:14:55.684Z,17.80
2019-01-31T12:15:55.673Z,16.30
2019-01-31T12:16:55.687Z,15.70
2019-01-31T12:17:55.666Z,15.80
2019-01-31T12:18:55.642Z,15.60
2019-01-31T12:19:55.630Z,15.80
2019-01-31T12:20:55.624Z,16.30
2019-01-31T12:21:55.629Z,14.80
2019-01-31T12:22:55.597Z,15.80
2019-01-31T12:23:55.585Z,15.80
2019-01-31T12:24:55.571Z,16.20
2019-01-31T12:25:55.576Z,16.30
2019-01-31T12:26:55.574Z,17.90
2019-01-31T12:27:55.546Z,17.00
2019-01-31T12:28:55.534Z,17.50
2019-01-31T12:29:55.515Z,15.60
2019-01-31T12:30:56.504Z,15.20
2019-01-31T12:31:55.514Z,14.80
2019-01-31T12:32:55.507Z,13.60
2019-01-31T12:33:55.485Z,15.00
2019-01-31T12:34:55.460Z,14.80
2019-01-31T12:35:55.447Z,15.50
2019-01-31T12:36:55.463Z,14.60
2019-01-31T12:37:55.427Z,14.80
2019-01-31T12:38:55.424Z,14.80
2019-01-31T12:39:55.415Z,14.30
2019-01-31T12:40:55.410Z,14.20
2019-01-31T12:41:55.402Z,15.00
2019-01-31T12:42:55.387Z,14.00
2019-01-31T12:43:55.356Z,14.10
2019-01-31T12:44:55.369Z,13.30
2019-01-31T12:45:55.344Z,13.10
2019-01-31T12:46:55.341Z,13.50
2019-01-31T12:47:55.344Z,12.80
2019-01-31T12:48:55.307Z,13.70
2019-01-31T12:49:55.295Z,13.30
2019-01-31T12:50:55.311Z,12.90
2019-01-31T12:51:55.440Z,12.50